createdAt,value
2019-03-22T00:01:56.620Z,4.40
2019-03-22T00:04:25.532Z,7.40
2019-03-22T00:06:54.404Z,5.93
2019-03-22T00:09:25.624Z,5.07
2019-03-22T00:11:54.513Z,6.00
2019-03-22T00:14:23.416Z,7.63
2019-03-22T00:16:52.625Z,3.57
2019-03-22T00:19:21.484Z,4.83
2019-03-22T00:21:50.371Z,9.40
2019-03-22T00:24:21.766Z,14.60
2019-03-22T00:26:50.635Z,11.53
2019-03-22T00:29:23.303Z,6.40
2019-03-22T00:31:55.176Z,7.63
2019-03-22T00:34:24.058Z,8.20
2019-03-22T00:36:52.940Z,9.87
2019-03-22T00:39:23.446Z,11.60
2019-03-22T00:41:53.408Z,13.90
2019-03-22T00:44:22.310Z,14.97
2019-03-22T00:46:53.954Z,9.57
2019-03-22T00:49:24.005Z,15.63
2019-03-22T00:51:52.906Z,8.17
2019-03-22T00:54:22.709Z,9.80
2019-03-22T00:56:52.879Z,13.67
2019-03-22T00:59:21.755Z,12.17
2019-03-22T01:01:53.376Z,13.30
2019-03-22T01:04:22.260Z,17.97
2019-03-22T01:06:52.603Z,8.23
2019-03-22T01:09:26.481Z,13.17
2019-03-22T01:11:54.960Z,13.73
2019-03-22T01:14:23.863Z,7.10
2019-03-22T01:16:53.802Z,10.20
2019-03-22T01:19:30.102Z,12.50
2019-03-22T01:21:58.988Z,11.97
2019-03-22T01:24:27.980Z,18.33
2019-03-22T01:26:56.887Z,12.90
2019-03-22T01:29:25.810Z,17.67
2019-03-22T01:31:54.667Z,7.60
2019-03-22T01:34:23.552Z,13.47
2019-03-22T01:36:52.974Z,13.70
2019-03-22T01:39:21.840Z,15.30
2019-03-22T01:41:53.366Z,11.83
2019-03-22T01:47:11.419Z,14.53
2019-03-22T01:49:40.325Z,12.03
2019-03-22T01:52:10.654Z,9.30
2019-03-22T01:54:39.526Z,4.90
2019-03-22T01:57:08.477Z,8.93
2019-03-22T01:59:38.782Z,10.43
2019-03-22T02:02:09.167Z,9.90
2019-03-22T02:04:39.589Z,15.07
2019-03-22T02:07:08.479Z,14.60
2019-03-22T02:09:40.355Z,15.03
2019-03-22T02:12:11.065Z,8.07
2019-03-22T02:14:39.935Z,15.90
2019-03-22T02:17:10.409Z,13.17
2019-03-22T02:19:39.333Z,17.13
2019-03-22T02:22:08.201Z,13.13
2019-03-22T02:24:42.348Z,19.87
2019-03-22T02:27:12.627Z,21.80
2019-03-22T02:29:44.568Z,15.47
2019-03-22T02:32:13.502Z,10.63
2019-03-22T02:34:43.997Z,25.33
2019-03-22T02:37:12.865Z,17.10
2019-03-22T02:39:41.971Z,27.30
2019-03-22T02:42:10.998Z,35.70
2019-03-22T02:44:39.873Z,16.60
2019-03-22T02:47:08.723Z,30.63
2019-03-22T02:49:37.683Z,25.87
2019-03-22T02:52:06.547Z,19.37
2019-03-22T02:54:35.455Z,35.47
2019-03-22T02:57:04.480Z,20.00
2019-03-22T02:59:38.906Z,26.47
2019-03-22T03:02:07.917Z,13.23
2019-03-22T03:04:41.323Z,14.83
2019-03-22T03:07:11.734Z,38.57
2019-03-22T03:09:42.163Z,29.23
2019-03-22T03:12:13.063Z,29.87
2019-03-22T03:15:03.692Z,44.67
2019-03-22T03:17:35.650Z,23.40
2019-03-22T03:20:13.637Z,24.17
2019-03-22T03:22:42.502Z,36.63
2019-03-22T03:25:14.089Z,30.57
2019-03-22T03:27:43.068Z,29.20
2019-03-22T03:30:24.139Z,38.47
2019-03-22T03:32:53.014Z,40.20
2019-03-22T03:35:21.891Z,34.30
2019-03-22T03:37:53.116Z,37.97
2019-03-22T03:40:23.464Z,43.63
2019-03-22T03:42:52.307Z,30.73
2019-03-22T03:45:31.800Z,29.13
2019-03-22T03:48:04.700Z,29.87
2019-03-22T03:50:33.573Z,24.60
2019-03-22T03:53:02.457Z,21.20
2019-03-22T03:55:32.185Z,14.90
2019-03-22T03:58:01.073Z,26.00
2019-03-22T04:00:29.977Z,21.47
2019-03-22T04:03:00.358Z,24.73
2019-03-22T04:05:31.250Z,23.53
2019-03-22T04:07:59.803Z,27.73
2019-03-22T04:10:31.517Z,26.93
2019-03-22T04:13:03.528Z,21.17
2019-03-22T04:15:32.757Z,27.17
2019-03-22T04:18:01.686Z,20.80
2019-03-22T04:20:31.870Z,30.00
2019-03-22T04:23:00.709Z,16.53
2019-03-22T04:25:29.594Z,32.50
2019-03-22T04:27:59.723Z,27.33
2019-03-22T04:30:48.024Z,20.07
2019-03-22T04:33:23.153Z,11.83
2019-03-22T04:35:52.092Z,20.47
2019-03-22T04:38:21.011Z,12.00
2019-03-22T04:40:49.897Z,12.13
2019-03-22T04:43:18.829Z,10.53
2019-03-22T04:45:49.465Z,15.80
2019-03-22T04:48:21.275Z,8.57
2019-03-22T04:50:51.813Z,13.23
2019-03-22T04:53:31.378Z,15.53
2019-03-22T04:56:03.512Z,10.50
2019-03-22T04:58:35.520Z,6.83
2019-03-22T05:01:05.188Z,13.97
2019-03-22T05:03:35.166Z,9.27
2019-03-22T05:06:05.816Z,4.30
2019-03-22T05:08:37.809Z,5.57
2019-03-22T05:11:08.817Z,4.53
2019-03-22T05:13:40.908Z,4.13
2019-03-22T05:16:12.278Z,8.33
2019-03-22T05:18:45.800Z,6.20
2019-03-22T05:21:16.542Z,5.27
2019-03-22T05:23:47.422Z,2.50
2019-03-22T05:26:19.401Z,1.67
2019-03-22T05:28:49.094Z,2.13
2019-03-22T05:31:23.519Z,4.43
2019-03-22T05:33:52.630Z,6.63
2019-03-22T05:36:22.363Z,3.80
2019-03-22T05:38:51.266Z,2.93
2019-03-22T05:41:20.183Z,1.87
2019-03-22T05:43:49.052Z,1.33
2019-03-22T05:46:17.950Z,2.53
2019-03-22T05:48:46.888Z,3.07
2019-03-22T05:51:16.814Z,3.50
2019-03-22T05:53:47.227Z,3.30
2019-03-22T05:56:17.592Z,2.87
2019-03-22T05:58:46.497Z,1.93
2019-03-22T06:01:16.577Z,0.87
2019-03-22T06:03:49.588Z,1.53
2019-03-22T06:06:18.478Z,0.93
2019-03-22T06:08:47.316Z,3.53
2019-03-22T06:11:18.036Z,5.33
2019-03-22T06:13:46.932Z,2.47
2019-03-22T06:16:15.795Z,4.73
2019-03-22T06:18:44.741Z,2.33
2019-03-22T06:21:15.102Z,1.93
2019-03-22T06:23:44.271Z,1.20
2019-03-22T06:26:13.218Z,3.23
2019-03-22T06:28:42.114Z,1.00
2019-03-22T06:31:10.961Z,1.20
2019-03-22T06:33:39.878Z,2.63
2019-03-22T06:36:09.696Z,1.00
2019-03-22T06:38:47.399Z,1.50
2019-03-22T06:41:19.017Z,1.27
2019-03-22T06:43:47.898Z,4.23
2019-03-22T06:46:18.224Z,0.80
2019-03-22T06:48:53.274Z,1.17
2019-03-22T06:51:22.172Z,1.23
2019-03-22T06:54:10.487Z,5.73
2019-03-22T06:56:39.360Z,5.17
2019-03-22T06:59:08.239Z,1.93
2019-03-22T07:01:37.166Z,2.07
2019-03-22T07:04:06.042Z,0.87
2019-03-22T07:06:34.914Z,2.03
2019-03-22T07:09:08.285Z,1.43
2019-03-22T07:11:37.203Z,1.77
2019-03-22T07:14:08.591Z,1.50
2019-03-22T07:16:37.464Z,0.70
2019-03-22T07:19:06.358Z,3.20
2019-03-22T07:21:44.996Z,3.47
2019-03-22T07:24:19.078Z,2.53
2019-03-22T07:26:45.268Z,0.97
2019-03-22T07:29:14.229Z,1.53
2019-03-22T07:31:44.761Z,2.00
2019-03-22T07:34:17.476Z,5.37
2019-03-22T07:39:52.828Z,0.73
2019-03-22T07:42:24.841Z,2.07
2019-03-22T07:45:10.620Z,4.67
2019-03-22T07:47:45.689Z,0.80
2019-03-22T07:50:14.794Z,1.60
2019-03-22T07:52:46.173Z,0.70
2019-03-22T07:55:17.269Z,2.30
2019-03-22T07:57:46.095Z,0.83
2019-03-22T08:00:29.894Z,4.33
2019-03-22T08:02:49.041Z,5.03
2019-03-22T08:05:20.257Z,4.03
2019-03-22T08:07:50.229Z,4.00
2019-03-22T08:10:19.150Z,2.70
2019-03-22T08:12:48.032Z,0.93
2019-03-22T08:15:28.682Z,3.27
2019-03-22T08:17:57.645Z,0.60
2019-03-22T08:20:28.534Z,1.53
2019-03-22T08:22:57.232Z,0.80
2019-03-22T08:25:27.459Z,1.93
2019-03-22T08:27:56.366Z,0.70
2019-03-22T08:30:26.910Z,3.50
2019-03-22T08:32:55.808Z,1.27
2019-03-22T08:35:24.698Z,1.17
2019-03-22T08:37:53.616Z,3.47
2019-03-22T08:40:23.419Z,0.87
2019-03-22T08:42:52.282Z,1.73
2019-03-22T08:45:21.163Z,3.10
2019-03-22T08:47:51.595Z,2.10
2019-03-22T08:50:20.464Z,5.10
2019-03-22T08:52:49.318Z,1.50
2019-03-22T08:55:19.702Z,2.00
2019-03-22T08:57:48.599Z,1.80
2019-03-22T09:00:17.722Z,1.10
2019-03-22T09:02:49.762Z,2.07
2019-03-22T09:05:17.166Z,3.87
2019-03-22T09:07:46.059Z,1.50
2019-03-22T09:10:15.504Z,0.73
2019-03-22T09:12:44.382Z,4.37
2019-03-22T09:15:13.517Z,2.37
2019-03-22T09:17:42.539Z,2.83
2019-03-22T09:20:11.833Z,3.13
2019-03-22T09:22:40.733Z,1.80
2019-03-22T09:25:11.248Z,2.93
2019-03-22T09:27:41.351Z,1.10
2019-03-22T09:30:14.832Z,1.17
2019-03-22T09:32:43.758Z,0.60
2019-03-22T09:35:12.853Z,1.43
2019-03-22T09:37:42.184Z,0.87
2019-03-22T09:40:11.504Z,1.37
2019-03-22T09:42:41.346Z,1.23
2019-03-22T09:45:13.971Z,2.83
2019-03-22T09:47:44.768Z,2.80
2019-03-22T09:50:14.271Z,1.17
2019-03-22T09:52:45.111Z,1.00
2019-03-22T09:55:14.844Z,1.17
2019-03-22T09:57:43.758Z,1.60
2019-03-22T10:00:30.591Z,1.70
2019-03-22T10:02:59.603Z,1.60
2019-03-22T10:05:28.598Z,1.13
2019-03-22T10:07:57.614Z,1.57
2019-03-22T10:10:27.018Z,2.10
2019-03-22T10:12:56.079Z,2.13
2019-03-22T10:15:26.807Z,2.00
2019-03-22T10:17:55.713Z,2.53
2019-03-22T10:20:24.678Z,0.60
2019-03-22T10:22:53.573Z,2.07
2019-03-22T10:25:24.342Z,0.70
2019-03-22T10:30:41.716Z,2.57
2019-03-22T10:33:22.673Z,5.57
2019-03-22T10:35:43.689Z,0.77
2019-03-22T10:38:16.199Z,0.73
2019-03-22T10:40:43.209Z,3.80
2019-03-22T10:43:12.134Z,3.13
2019-03-22T10:45:41.219Z,1.73
2019-03-22T10:48:11.725Z,2.30
2019-03-22T10:50:40.782Z,0.70
2019-03-22T10:53:09.890Z,1.90
2019-03-22T10:55:38.895Z,3.20
2019-03-22T10:58:20.326Z,1.13
2019-03-22T11:00:38.547Z,1.47
2019-03-22T11:03:07.576Z,3.63
2019-03-22T11:05:38.175Z,4.17
2019-03-22T11:08:07.086Z,4.63
2019-03-22T11:10:36.105Z,0.70
2019-03-22T11:13:05.172Z,0.50
2019-03-22T11:15:34.076Z,3.23
2019-03-22T11:18:05.844Z,3.20
2019-03-22T11:20:34.746Z,3.53
2019-03-22T11:23:05.897Z,2.30
2019-03-22T11:25:34.303Z,3.17
2019-03-22T11:28:03.975Z,1.00
2019-03-22T11:30:32.960Z,5.83
2019-03-22T11:33:01.871Z,2.60
2019-03-22T11:35:30.853Z,1.60
2019-03-22T11:37:59.702Z,2.53
2019-03-22T11:40:28.676Z,2.20
2019-03-22T11:42:57.583Z,1.43
2019-03-22T11:45:26.721Z,4.43
2019-03-22T11:47:55.693Z,1.13
2019-03-22T11:50:26.344Z,2.00
2019-03-22T11:52:55.251Z,1.17
2019-03-22T11:55:24.154Z,0.67
2019-03-22T11:57:56.927Z,1.30
2019-03-22T12:00:26.582Z,5.53
2019-03-22T12:02:55.728Z,2.03
2019-03-22T12:05:24.924Z,1.27
2019-03-22T12:07:53.913Z,0.83
2019-03-22T12:10:23.078Z,1.83
2019-03-22T12:12:51.992Z,1.23
2019-03-22T12:15:26.836Z,0.50
2019-03-22T12:17:55.844Z,0.90
2019-03-22T12:20:25.218Z,0.70
2019-03-22T12:22:54.136Z,0.47
2019-03-22T12:25:25.207Z,2.00
2019-03-22T12:27:54.223Z,2.20
2019-03-22T12:30:27.296Z,0.83
2019-03-22T12:32:56.353Z,0.70
2019-03-22T12:35:25.319Z,2.70
2019-03-22T12:37:54.483Z,0.67
2019-03-22T12:40:23.916Z,1.13
2019-03-22T12:42:52.903Z,2.93
2019-03-22T12:45:27.363Z,0.73
2019-03-22T12:47:58.646Z,2.43
2019-03-22T12:50:27.682Z,1.97
2019-03-22T12:52:58.712Z,0.90
2019-03-22T12:55:27.773Z,0.40
2019-03-22T12:57:56.707Z,2.17
2019-03-22T13:00:28.625Z,0.50
2019-03-22T13:02:57.744Z,2.87
2019-03-22T13:05:26.780Z,0.77
2019-03-22T13:07:58.896Z,1.40
2019-03-22T13:10:28.792Z,0.90
2019-03-22T13:12:59.317Z,0.47
2019-03-22T13:15:29.832Z,2.70
2019-03-22T13:17:58.913Z,1.00
2019-03-22T13:20:28.040Z,3.93
2019-03-22T13:22:56.970Z,0.77
2019-03-22T13:25:26.032Z,0.70
2019-03-22T13:27:57.788Z,0.50
2019-03-22T13:30:40.325Z,1.37
2019-03-22T13:33:10.145Z,4.17
2019-03-22T13:35:40.217Z,0.57
2019-03-22T13:38:09.199Z,1.73
2019-03-22T13:40:38.085Z,0.50
2019-03-22T13:43:08.456Z,2.07
2019-03-22T13:45:38.676Z,0.50
2019-03-22T13:48:10.663Z,0.40
2019-03-22T13:50:42.350Z,1.07
2019-03-22T13:53:11.285Z,1.00
2019-03-22T13:55:40.176Z,0.83
2019-03-22T13:58:11.934Z,0.80
2019-03-22T14:00:40.929Z,1.00
2019-03-22T14:03:09.902Z,0.70
2019-03-22T14:05:41.439Z,0.47
2019-03-22T14:08:10.360Z,0.50
2019-03-22T14:10:39.243Z,0.43
2019-03-22T14:13:10.138Z,1.43
2019-03-22T14:15:38.732Z,0.80
2019-03-22T14:18:07.616Z,0.47
2019-03-22T14:20:36.555Z,1.40
2019-03-22T14:23:06.269Z,1.17
2019-03-22T14:25:35.258Z,0.77
2019-03-22T14:28:05.896Z,0.77
2019-03-22T14:30:36.047Z,0.47
2019-03-22T14:33:13.004Z,0.40
2019-03-22T14:35:36.521Z,0.50
2019-03-22T14:38:05.953Z,0.47
2019-03-22T14:40:35.110Z,0.43
2019-03-22T14:43:06.028Z,0.60
2019-03-22T14:45:35.233Z,0.40
2019-03-22T14:48:04.122Z,1.17
2019-03-22T14:50:33.034Z,0.30
2019-03-22T14:53:01.917Z,0.20
2019-03-22T14:55:31.992Z,6.77
2019-03-22T14:58:06.428Z,0.30
2019-03-22T15:00:40.052Z,0.50
2019-03-22T15:03:24.587Z,0.50
2019-03-22T15:05:54.928Z,0.30
2019-03-22T15:08:24.095Z,1.27
2019-03-22T15:10:53.549Z,0.40
2019-03-22T15:13:27.101Z,1.17
2019-03-22T15:15:57.619Z,1.20
2019-03-22T15:18:34.097Z,1.17
2019-03-22T15:21:11.937Z,0.40
2019-03-22T15:23:48.218Z,1.00
2019-03-22T15:26:36.212Z,1.40
2019-03-22T15:29:26.098Z,3.77
2019-03-22T15:31:56.618Z,3.43
2019-03-22T15:34:32.544Z,4.50
2019-03-22T15:37:19.136Z,2.30
2019-03-22T15:40:03.889Z,1.23
2019-03-22T15:42:32.826Z,3.67
2019-03-22T15:45:01.795Z,4.47
2019-03-22T15:47:34.893Z,3.93
2019-03-22T15:50:01.281Z,3.40
2019-03-22T15:52:30.994Z,4.33
2019-03-22T15:54:59.879Z,4.23
2019-03-22T15:57:28.833Z,6.17
2019-03-22T15:59:57.716Z,10.70
2019-03-22T16:02:26.555Z,8.00
2019-03-22T16:04:56.960Z,3.73
2019-03-22T16:07:25.859Z,5.07
2019-03-22T16:09:54.923Z,4.13
2019-03-22T16:12:27.605Z,6.63
2019-03-22T16:14:57.745Z,8.63
2019-03-22T16:17:26.593Z,6.23
2019-03-22T16:19:55.847Z,5.20
2019-03-22T16:22:24.992Z,7.47
2019-03-22T16:24:53.876Z,6.90
2019-03-22T16:27:22.784Z,11.30
2019-03-22T16:29:51.616Z,14.07
2019-03-22T16:32:20.799Z,10.43
2019-03-22T16:34:49.798Z,12.47
2019-03-22T16:37:18.699Z,11.23
2019-03-22T16:39:51.606Z,9.97
2019-03-22T16:42:20.735Z,8.20
2019-03-22T16:44:49.692Z,7.37
2019-03-22T16:47:18.615Z,11.43
2019-03-22T16:49:47.668Z,5.47
2019-03-22T16:52:16.532Z,4.60
2019-03-22T16:54:46.966Z,4.90
2019-03-22T16:57:18.703Z,6.17
2019-03-22T16:59:47.752Z,8.50
2019-03-22T17:02:16.637Z,10.13
2019-03-22T17:04:49.451Z,16.63
2019-03-22T17:07:18.363Z,11.37
2019-03-22T17:09:47.238Z,10.63
2019-03-22T17:12:16.172Z,8.87
2019-03-22T17:14:45.236Z,22.13
2019-03-22T17:17:15.258Z,6.03
2019-03-22T17:19:44.943Z,15.63
2019-03-22T17:22:13.967Z,15.60
2019-03-22T17:24:45.033Z,6.83
2019-03-22T17:27:13.945Z,9.67
2019-03-22T17:29:42.822Z,12.20
2019-03-22T17:32:11.702Z,5.53
2019-03-22T17:34:40.624Z,11.20
2019-03-22T17:37:09.458Z,7.17
2019-03-22T17:39:38.345Z,18.33
2019-03-22T17:42:08.756Z,7.00
2019-03-22T17:44:37.621Z,10.80
2019-03-22T17:47:06.450Z,7.30
2019-03-22T17:49:35.370Z,9.53
2019-03-22T17:52:04.242Z,10.33
2019-03-22T17:54:33.159Z,8.60
2019-03-22T17:57:03.565Z,16.67
2019-03-22T17:59:32.433Z,5.93
2019-03-22T18:02:01.260Z,6.10
2019-03-22T18:04:31.770Z,7.23
2019-03-22T18:07:00.649Z,9.60
2019-03-22T18:09:29.550Z,9.83
2019-03-22T18:11:59.917Z,6.87
2019-03-22T18:14:28.810Z,4.83
2019-03-22T18:16:57.717Z,10.17
2019-03-22T18:19:26.576Z,9.67
2019-03-22T18:21:55.421Z,14.10
2019-03-22T18:24:24.334Z,7.20
2019-03-22T18:26:53.197Z,7.70
2019-03-22T18:29:22.103Z,4.50
2019-03-22T18:31:51.024Z,10.40
2019-03-22T18:34:21.968Z,6.90
2019-03-22T18:36:50.829Z,15.43
2019-03-22T18:39:19.751Z,8.57
2019-03-22T18:41:49.816Z,8.57
2019-03-22T18:44:18.644Z,13.53
2019-03-22T18:46:49.061Z,9.80
2019-03-22T18:49:21.363Z,13.77
2019-03-22T18:51:49.857Z,18.53
2019-03-22T18:54:18.809Z,14.73
2019-03-22T18:56:50.758Z,10.00
2019-03-22T18:59:19.654Z,14.20
2019-03-22T19:01:48.592Z,14.63
2019-03-22T19:04:17.475Z,27.47
2019-03-22T19:06:46.329Z,12.37
2019-03-22T19:09:17.694Z,6.70
2019-03-22T19:11:50.730Z,10.23
2019-03-22T19:14:19.646Z,5.20
2019-03-22T19:16:48.526Z,16.23
2019-03-22T19:19:17.404Z,17.50
2019-03-22T19:21:46.331Z,12.73
2019-03-22T19:24:17.992Z,14.93
2019-03-22T19:26:49.970Z,13.63
2019-03-22T19:29:18.877Z,11.43
2019-03-22T19:31:49.319Z,14.20
2019-03-22T19:34:21.268Z,6.67
2019-03-22T19:36:52.627Z,17.03
2019-03-22T19:39:27.393Z,12.40
2019-03-22T19:41:55.150Z,12.63
2019-03-22T19:44:24.009Z,10.07
2019-03-22T19:46:52.957Z,10.80
2019-03-22T19:49:21.822Z,11.27
2019-03-22T19:51:52.151Z,8.13
2019-03-22T19:54:21.298Z,19.40
2019-03-22T19:56:50.174Z,49.07
2019-03-22T19:59:24.315Z,15.60
2019-03-22T20:01:54.555Z,22.03
2019-03-22T20:04:23.386Z,31.80
2019-03-22T20:06:55.149Z,17.87
2019-03-22T20:09:25.535Z,18.67
2019-03-22T20:12:03.696Z,15.97
2019-03-22T20:14:31.879Z,15.43
2019-03-22T20:17:00.698Z,19.27
2019-03-22T20:19:31.114Z,12.60
2019-03-22T20:21:59.986Z,13.37
2019-03-22T20:24:31.783Z,13.50
2019-03-22T20:27:02.941Z,13.77
2019-03-22T20:29:31.860Z,11.00
2019-03-22T20:32:04.045Z,13.83
2019-03-22T20:34:33.248Z,18.37
2019-03-22T20:37:02.301Z,16.13
2019-03-22T20:39:31.386Z,12.47
2019-03-22T20:42:00.453Z,12.57
2019-03-22T20:44:33.756Z,7.37
2019-03-22T20:47:02.726Z,11.20
2019-03-22T20:49:31.595Z,7.30
2019-03-22T20:52:00.668Z,7.83
2019-03-22T20:54:29.550Z,9.43
2019-03-22T20:57:00.026Z,11.67
2019-03-22T20:59:30.060Z,10.40
2019-03-22T21:01:58.983Z,5.03
2019-03-22T21:04:31.143Z,7.17
2019-03-22T21:07:00.022Z,9.77
2019-03-22T21:09:28.905Z,8.20
2019-03-22T21:11:57.822Z,9.47
2019-03-22T21:14:27.734Z,9.70
2019-03-22T21:16:59.432Z,9.17
2019-03-22T21:19:37.326Z,2.53
2019-03-22T21:22:06.164Z,4.97
2019-03-22T21:24:35.168Z,4.50
2019-03-22T21:27:15.418Z,7.83
2019-03-22T21:29:44.031Z,5.10
2019-03-22T21:32:13.550Z,9.87
2019-03-22T21:34:44.125Z,12.63
2019-03-22T21:37:13.278Z,14.23
2019-03-22T21:39:44.136Z,7.60
2019-03-22T21:42:14.313Z,8.13
2019-03-22T21:44:43.302Z,12.07
2019-03-22T21:47:12.235Z,8.60
2019-03-22T21:49:45.423Z,13.43
2019-03-22T21:52:17.651Z,12.77
2019-03-22T21:54:46.266Z,16.70
2019-03-22T21:57:15.259Z,6.17
2019-03-22T21:59:44.268Z,17.80
2019-03-22T22:02:16.332Z,17.90
2019-03-22T22:04:48.184Z,17.37
2019-03-22T22:07:25.764Z,17.13
2019-03-22T22:09:54.760Z,21.70
2019-03-22T22:12:26.953Z,19.63
2019-03-22T22:15:05.289Z,19.10
2019-03-22T22:17:34.384Z,16.50
2019-03-22T22:20:08.332Z,15.93
2019-03-22T22:22:38.709Z,29.47
2019-03-22T22:25:08.364Z,18.80
2019-03-22T22:27:39.813Z,23.33
2019-03-22T22:30:14.856Z,8.00
2019-03-22T22:32:43.928Z,18.50
2019-03-22T22:35:13.118Z,13.70
2019-03-22T22:37:44.144Z,21.70
2019-03-22T22:40:18.723Z,19.20
2019-03-22T22:42:50.696Z,20.77
2019-03-22T22:45:19.873Z,14.67
2019-03-22T22:47:52.250Z,20.90
2019-03-22T22:50:21.169Z,14.73
2019-03-22T22:52:50.079Z,15.73
2019-03-22T22:55:18.995Z,19.17
2019-03-22T22:57:49.908Z,7.00
2019-03-22T23:00:18.938Z,12.17
2019-03-22T23:02:49.779Z,13.37
2019-03-22T23:05:21.398Z,7.97
2019-03-22T23:07:50.324Z,8.30
2019-03-22T23:10:19.307Z,5.77
2019-03-22T23:12:50.148Z,2.67
2019-03-22T23:15:21.576Z,2.93
2019-03-22T23:17:50.552Z,3.67
2019-03-22T23:20:19.448Z,2.10
2019-03-22T23:22:50.045Z,8.00
2019-03-22T23:25:18.950Z,4.33
2019-03-22T23:27:47.882Z,10.93
2019-03-22T23:30:17.003Z,2.97
2019-03-22T23:32:45.930Z,3.47
2019-03-22T23:35:14.952Z,5.83
2019-03-22T23:37:45.425Z,4.77
2019-03-22T23:40:14.282Z,1.47
2019-03-22T23:42:43.232Z,4.30
2019-03-22T23:45:12.367Z,4.60
2019-03-22T23:47:44.021Z,3.00
2019-03-22T23:50:13.076Z,6.70
2019-03-22T23:52:41.934Z,6.70
2019-03-22T23:55:10.917Z,13.23
2019-03-22T23:57:44.285Z,4.60
